AirNav   Pilot Hours Calculator
 
 1093 users online  

0MI9 Henry Ford Hospital Heliport
Detroit, Michigan, USA

GOING TO DETROIT?


FAA INFORMATION EFFECTIVE 07 NOVEMBER 2019

Location

FAA Identifier: 0MI9
Lat/Long: 42-22-07.3500N 083-05-07.3600W
42-22.122500N 083-05.122667W
42.3687083,-83.0853778
(estimated)
Elevation: 633 ft. / 193 m (estimated)
Variation: 06W (1990)
Time zone: UTC -5 (UTC -4 during Daylight Saving Time)
Zip code: 48202

Heliport Operations

Heliport use: Private use, MEDICAL USE.
Activation date: 02/1992
Control tower: no
ARTCC: CLEVELAND CENTER
FSS: LANSING FLIGHT SERVICE STATION
Attendance: UNATNDD
Wind indicator: yes
Segmented circle: no
Lights: FOR PERIMETER LGTS PHONE 313-876-1115.

Heliport Communications

WX ASOS at DET (4 nm NE): PHONE 313-371-9696
WX AWOS-3 at VLL (11 nm N): 119.475 (248-288-4649)
WX ASOS at DTW (15 nm SW): PHONE 734-955-5015
WX AWOS-3 at ONZ (17 nm S): 119.675 (734-692-9686)

Nearby radio navigation aids

VOR radial/distance  VOR name  Freq  Var
YQGr308/13.4WINDSOR VOR/DME113.8006W
DXOr059/15.6DETROIT VOR/DME113.4006W
SVMr099/22.7SALEM VORTAC114.3003W
CRLr044/25.4CARLETON VOR/DME115.7003W

 
NDB name  Hdg/Dist  Freq  Var  ID
GROSSE ILE018/16.341907WRYS .-. -.-- ...

Heliport Services

Runway Information

Helipad H1

Dimensions: 45 x 45 ft. / 14 x 14 m
Surface: concrete
Runway edge lights: PERI
PERIMETER LGTS.
Latitude: 42-22.122000N
Longitude: 083-05.121833W
Elevation: 633.0 ft.
Traffic pattern: leftleft

Heliport Ownership and Management from official FAA records

Ownership: Privately-owned
Owner: HENRY FORD HOSPITAL
2799 W. GRAND BLVD
DETROIT, MI 48202
Phone 313-916-2924
Manager: JEFFERY RIVIER
2799 W. GRAND BLVD
DETROIT, MI 48202
Phone (313) 916-7877

Additional Remarks

FOR CD CTC DETROIT APCH AT 800-499-8181.

Instrument Procedures

There are no published instrument procedures at 0MI9.

Some nearby airports with instrument procedures:

KDET - Coleman A Young Municipal Airport (4 nm NE)
KVLL - Oakland/Troy Airport (11 nm N)
KDTW - Detroit Metropolitan Wayne County Airport (15 nm SW)
1D2 - Canton-Plymouth-Mettetal Airport (16 nm W)
KONZ - Grosse Ile Municipal Airport (17 nm S)
KMTC - Selfridge Air National Guard Base (18 nm NE)
 
Loc | Ops | Rwys | IFR | FBO | Links
Com | Nav | Svcs | Stats | Notes
Area around 0MI9 (Henry Ford Hospital Heliport)
 
Road maps at: MapQuest Bing Google
 
Aerial photo
No photo
 
Sectional chart

 
Airport distance calculator
Flying to Henry Ford Hospital Heliport? Find the distance to fly.

From to 0MI9

Sunrise and sunset
Times for 21-Nov-2019
 Local
(UTC-5)
 Zulu
(UTC)
Morning civil twilight07:0112:01
Sunrise07:3212:32
Sunset17:0522:05
Evening civil twilight17:3622:36

Current date and time
Zulu (UTC)  22-Nov-2019 00:31:57
Local (UTC-5)  21-Nov-2019 19:31:57
 
METAR
KDET 
4nm NE 
212353Z 23018G30KT 6SM -RA BR OVC011 11/11 A2969 RMK AO2 PK WND 23030/2353 RAB21 SLP058 P0000 60004 T01110106 10111 20072 56011
CYQG 
8nm SE 
220024Z AUTO 21014G20KT 4SM -RA BR BKN009 OVC014 10/09 A2970 RMK SLP063
KVLL 
11nm N 
220015Z AUTO 22011G17KT 5SM DZ OVC008 11/10 A2970 RMK AO2 T01050101
KDTW 
14nm SW 
212353Z 21019G29KT 4SM -RA BR OVC010 11/09 A2971 RMK AO2 PK WND 23030/2302 RAB01 SLP063 P0001 60003 T01110094 10111 20067 55006 $
KONZ 
16nm S 
220016Z AUTO 22012G20KT 5SM -RA OVC011 11/10 A2972 RMK AO2 T01070098
KMTC 
19nm NE 
212356Z 20012KT 2SM -DZ BR OVC009 10/10 A2966 RMK AO2A SLP051 P0000 60008 T01000100 10100 20060 56013 $
TAF
KDET 
4nm NE 
211725Z 2118/2218 19014G22KT 5SM SHRA BKN040 OVC060 FM212000 20018G27KT 6SM -SHRA BKN022 OVC040 FM212300 23020G30KT P6SM OVC012 FM220300 28018G28KT P6SM OVC020 FM220800 30014G24KT P6SM OVC028 FM221400 31012G18KT P6SM BKN035
CYQG 
8nm SE 
212253Z 2122/2218 21017G27KT 6SM BR SCT008 OVC015 TEMPO 2122/2203 4SM -RA -DZ BR BKN008 OVC015 FM220300 24018G28KT 6SM -SHRA BR OVC020 TEMPO 2203/2212 P6SM NSW OVC025 BECMG 2204/2206 30015G25KT FM221200 30012G22KT P6SM BKN025 RMK FCST BASED ON AUTO OBS. NXT FCST BY 220000Z
KDTW 
14nm SW 
212043Z 2121/2224 20018G27KT 5SM -SHRA BKN012 OVC020 FM212200 22020G30KT 5SM -DZ OVC008 FM220300 28018G28KT P6SM OVC020 FM220800 30014G24KT P6SM OVC028 FM221400 31012G18KT P6SM BKN035
KMTC 
19nm NE 
212315Z 2123/2223 19012KT 3200 BR OVC008 QNH2964INS TEMPO 2123/2124 20025G35KT 510003 BECMG 2123/2124 19012KT 6000 -SHRA OVC008 540093 QNH2964INS TEMPO 2200/2203 20025G35KT 510003 BECMG 2201/2203 22010G15KT 9999 NSW OVC007 540076 QNH2967INS BECMG 2205/2206 25010G15KT 9999 OVC010 QNH2978INS BECMG 2210/2211 28010G15KT 9999 BKN020 QNH2994INS BECMG 2215/2216 31012G18KT 9999 FEW025 QNH3007INS TX09/2200Z TN02/2212Z
NOTAMs
Click for the latest NOTAMs
NOTAMs are issued by the DoD/FAA and will open in a separate window not controlled by AirNav.

 

 
 

Would you like to see your business listed on this page?

 If your business provides an interesting product or service to pilots, flight crews, aircraft, or users of the Henry Ford Hospital Heliport, you should consider listing it here.  To start the listing process, click on the button below
 
Add a business
 

Other Pages about Henry Ford Hospital Heliport

Update a link
 
Copyright © AirNav, LLC. All rights reserved. Privacy Policy  Contact